Time;durP1;ratioP1;P1;durP2;ratioP2;P2;SDS_P1;SDS_P2;PMS_P1;PMS_P2;Temp;Humidity;BMP_temperature;BMP_pressure;BME280_temperature;BME280_humidity;BME280_pressure;Samples;Min_cycle;Max_cycle;Signal;HPM_P1;HPM_P2
2023/08/16 00:02:04;;;;;;;0.20;0.20;;;14.70;99.90;;;;;;5136634;27;19923;-64
2023/08/16 00:04:30;;;;;;;;;;;14.20;99.90;;;;;;5155107;27;20498;-64
2023/08/16 00:06:56;;;;;;;0.25;0.25;;;14.30;99.90;;;;;;5154931;27;19919;-63
2023/08/16 00:09:21;;;;;;;0.32;0.32;;;14.60;99.90;;;;;;5153932;27;20106;-62
2023/08/16 00:11:47;;;;;;;;;;;14.00;99.90;;;;;;5136693;27;20047;-63
2023/08/16 00:14:13;;;;;;;1.55;0.90;;;14.30;99.90;;;;;;5154705;27;19919;-63
2023/08/16 00:16:38;;;;;;;;;;;14.00;99.90;;;;;;5155000;27;20417;-63
2023/08/16 00:19:04;;;;;;;0.28;0.28;;;14.10;99.90;;;;;;5154519;27;19919;-63
2023/08/16 00:21:30;;;;;;;;;;;14.00;99.90;;;;;;5135901;27;20039;-63
2023/08/16 00:23:55;;;;;;;0.10;0.10;;;13.90;99.90;;;;;;5154423;27;19923;-64
2023/08/16 00:26:21;;;;;;;;;;;14.20;99.90;;;;;;5154846;27;20046;-63
2023/08/16 00:28:48;;;;;;;0.30;0.30;;;14.30;99.90;;;;;;5135911;27;19934;-64
2023/08/16 00:31:14;;;;;;;1.60;0.63;;;13.60;99.90;;;;;;5154149;27;20446;-63
2023/08/16 00:33:40;;;;;;;0.90;0.73;;;14.10;99.90;;;;;;5154221;27;20394;-63
2023/08/16 00:36:07;;;;;;;0.35;0.35;;;13.90;99.90;;;;;;5154189;27;20046;-62
2023/08/16 00:38:33;;;;;;;0.73;0.70;;;14.10;99.90;;;;;;5154351;27;20474;-63
2023/08/16 00:40:58;;;;;;;0.70;0.65;;;14.10;99.90;;;;;;5153664;27;20086;-63
2023/08/16 00:43:24;;;;;;;;;;;14.00;99.90;;;;;;5153882;27;20043;-63
2023/08/16 00:45:50;;;;;;;0.30;0.30;;;13.50;99.90;;;;;;5153941;27;20366;-62
2023/08/16 00:48:18;;;;;;;0.30;0.30;;;13.60;99.90;;;;;;5154042;27;20043;-62
2023/08/16 00:50:45;;;;;;;0.50;0.50;;;14.10;99.90;;;;;;5152997;27;20050;-62
2023/08/16 00:53:13;;;;;;;0.63;0.63;;;14.10;99.90;;;;;;5153142;27;20075;-62
2023/08/16 00:55:40;;;;;;;0.68;0.68;;;14.00;99.90;;;;;;5153895;27;20043;-62
2023/08/16 00:58:06;;;;;;;0.32;0.32;;;13.50;99.90;;;;;;5153768;27;20125;-63
2023/08/16 01:00:32;;;;;;;0.50;0.50;;;13.30;99.90;;;;;;5153529;27;20129;-62
2023/08/16 01:02:58;;;;;;;0.40;0.40;;;13.50;99.90;;;;;;5153713;27;20057;-62
2023/08/16 01:05:24;;;;;;;0.30;0.30;;;13.60;99.90;;;;;;5153054;27;20039;-62
2023/08/16 01:07:50;;;;;;;;;;;14.00;99.90;;;;;;5153974;27;20051;-63
2023/08/16 01:10:15;;;;;;;0.70;0.70;;;13.20;99.90;;;;;;5153177;27;19919;-63
2023/08/16 01:12:51;;;;;;;;;;;13.40;99.90;;;;;;5153019;27;20052;-63
2023/08/16 01:15:26;;;;;;;0.30;0.30;;;14.00;99.90;;;;;;5153178;27;20046;-63
2023/08/16 01:17:53;;;;;;;1.02;0.50;;;13.60;99.90;;;;;;5153343;27;20183;-63
2023/08/16 01:20:21;;;;;;;0.30;0.30;;;13.70;99.90;;;;;;5152397;27;20047;-62
2023/08/16 01:23:05;;;;;;;0.40;0.40;;;14.20;99.90;;;;;;5152711;27;20050;-62
2023/08/16 01:25:35;;;;;;;0.43;0.43;;;13.70;99.90;;;;;;5152985;27;20046;-64
2023/08/16 01:28:01;;;;;;;0.30;0.30;;;14.00;99.90;;;;;;5153594;27;20367;-63
2023/08/16 01:30:29;;;;;;;0.38;0.38;;;14.00;99.90;;;;;;5153300;27;20046;-63
2023/08/16 01:32:54;;;;;;;0.80;0.40;;;13.80;99.90;;;;;;5153165;27;20486;-62
2023/08/16 01:35:21;;;;;;;0.85;0.70;;;13.50;99.90;;;;;;5134293;27;20053;-63
2023/08/16 01:37:47;;;;;;;1.13;0.57;;;13.70;99.90;;;;;;5153031;27;20426;-62
2023/08/16 01:40:13;;;;;;;;;;;13.50;99.90;;;;;;5153354;27;20054;-62
2023/08/16 01:42:48;;;;;;;0.40;0.40;;;13.50;99.90;;;;;;5153090;27;19922;-64
2023/08/16 01:45:16;;;;;;;0.30;0.30;;;13.20;99.90;;;;;;5152854;27;20042;-64
2023/08/16 01:47:42;;;;;;;0.32;0.32;;;13.40;99.90;;;;;;5153208;27;20117;-63
2023/08/16 01:50:08;;;;;;;0.75;0.75;;;13.90;99.90;;;;;;5152873;27;20042;-62
2023/08/16 01:52:35;;;;;;;0.80;0.52;;;13.70;99.90;;;;;;5152812;27;20046;-64
2023/08/16 01:55:01;;;;;;;0.68;0.60;;;13.40;99.90;;;;;;5152452;27;20038;-63
2023/08/16 01:57:26;;;;;;;0.50;0.50;;;13.70;99.90;;;;;;5134095;27;20046;-63
2023/08/16 01:59:52;;;;;;;;;;;13.50;99.90;;;;;;5153211;27;20046;-63
2023/08/16 02:02:17;;;;;;;0.20;0.20;;;13.20;99.90;;;;;;5152284;27;19929;-63
2023/08/16 02:04:43;;;;;;;0.47;0.47;;;13.70;99.90;;;;;;5152487;27;20047;-64
2023/08/16 02:07:09;;;;;;;;;;;13.80;99.90;;;;;;5133340;27;20050;-63
2023/08/16 02:09:34;;;;;;;0.20;0.20;;;13.60;99.90;;;;;;5152488;27;19930;-63
2023/08/16 02:12:00;;;;;;;0.70;0.52;;;13.80;99.90;;;;;;5152408;27;20095;-63
2023/08/16 02:14:26;;;;;;;;;;;13.50;99.90;;;;;;5152587;27;20043;-64
2023/08/16 02:16:51;;;;;;;0.20;0.20;;;13.20;99.90;;;;;;5152546;27;19919;-63
2023/08/16 02:19:17;;;;;;;0.45;0.45;;;13.50;99.90;;;;;;5152621;27;20482;-63
2023/08/16 02:21:42;;;;;;;;;;;13.40;99.90;;;;;;5153452;27;20359;-63
2023/08/16 02:24:09;;;;;;;0.28;0.28;;;13.20;99.90;;;;;;5152211;27;20595;-63
2023/08/16 02:26:35;;;;;;;0.40;0.40;;;13.40;99.90;;;;;;5152352;27;20051;-64
2023/08/16 02:29:00;;;;;;;0.30;0.30;;;13.50;99.90;;;;;;5152567;27;20058;-64
2023/08/16 02:31:26;;;;;;;0.20;0.20;;;13.70;99.90;;;;;;5153062;27;20195;-63
2023/08/16 02:33:52;;;;;;;;;;;13.10;99.90;;;;;;5157146;27;20046;-63
2023/08/16 02:36:17;;;;;;;0.88;0.73;;;13.50;99.90;;;;;;5138068;27;19923;-64
2023/08/16 02:38:43;;;;;;;0.38;0.38;;;13.40;99.90;;;;;;5155854;27;20292;-63
2023/08/16 02:41:09;;;;;;;;;;;13.40;99.90;;;;;;5138556;27;20042;-63
2023/08/16 02:43:34;;;;;;;0.32;0.32;;;12.90;99.90;;;;;;5156405;27;19930;-63
2023/08/16 02:46:00;;;;;;;;;;;13.30;99.90;;;;;;5156771;27;20043;-64
2023/08/16 02:48:25;;;;;;;0.30;0.30;;;13.40;99.90;;;;;;5156347;27;19930;-63
2023/08/16 02:50:51;;;;;;;0.20;0.20;;;13.30;99.90;;;;;;5137269;27;20096;-64
2023/08/16 02:53:17;;;;;;;;;;;13.30;99.90;;;;;;5156593;27;20046;-63
2023/08/16 02:55:43;;;;;;;0.22;0.22;;;13.20;99.90;;;;;;5156384;27;19923;-64
2023/08/16 02:58:08;;;;;;;0.57;0.57;;;13.50;99.90;;;;;;5136961;27;20060;-63
2023/08/16 03:00:34;;;;;;;;;;;12.90;99.90;;;;;;5156560;27;20177;-63
2023/08/16 03:02:59;;;;;;;0.50;0.50;;;12.70;99.90;;;;;;5156102;27;19922;-64
2023/08/16 03:05:25;;;;;;;0.40;0.40;;;13.50;99.90;;;;;;5156242;27;20455;-63
2023/08/16 03:07:51;;;;;;;2.03;0.55;;;13.10;99.90;;;;;;5155626;27;20486;-63
2023/08/16 03:10:16;;;;;;;;;;;13.10;99.90;;;;;;5137811;27;20398;-63
2023/08/16 03:12:42;;;;;;;0.40;0.40;;;13.00;99.90;;;;;;5155646;27;19967;-65
2023/08/16 03:15:08;;;;;;;0.40;0.40;;;12.90;99.90;;;;;;5155786;27;20125;-64
2023/08/16 03:17:34;;;;;;;0.30;0.30;;;13.00;99.90;;;;;;5155607;27;20050;-64
2023/08/16 03:20:00;;;;;;;0.30;0.30;;;13.00;99.90;;;;;;5137461;27;20050;-64
2023/08/16 03:22:25;;;;;;;0.30;0.30;;;13.20;99.90;;;;;;5155669;27;20046;-63
2023/08/16 03:24:51;;;;;;;;;;;12.90;99.90;;;;;;5155441;27;20050;-64
2023/08/16 03:27:17;;;;;;;0.30;0.30;;;13.00;99.90;;;;;;5155624;27;19923;-63
2023/08/16 03:29:42;;;;;;;0.20;0.20;;;13.10;99.90;;;;;;5155637;27;20047;-63
2023/08/16 03:32:08;;;;;;;0.28;0.28;;;12.90;99.90;;;;;;5155489;27;20050;-64
2023/08/16 03:34:34;;;;;;;;;;;13.60;99.90;;;;;;5155713;27;20042;-64
2023/08/16 03:36:59;;;;;;;0.28;0.28;;;13.30;99.90;;;;;;5155319;27;19927;-64
2023/08/16 03:39:25;;;;;;;0.28;0.28;;;13.40;99.90;;;;;;5155554;27;20107;-64
2023/08/16 03:41:51;;;;;;;0.30;0.30;;;13.00;99.90;;;;;;5155149;27;20054;-64
2023/08/16 03:44:16;;;;;;;0.20;0.20;;;13.60;99.90;;;;;;5153997;27;20050;-63
2023/08/16 03:46:42;;;;;;;0.40;0.30;;;13.00;99.90;;;;;;5155524;27;20107;-64
2023/08/16 03:49:08;;;;;;;0.32;0.32;;;13.10;99.90;;;;;;5136301;27;20054;-64
2023/08/16 03:51:33;;;;;;;;;;;13.30;99.90;;;;;;5155819;27;20371;-64
2023/08/16 03:53:59;;;;;;;0.52;0.35;;;12.80;99.90;;;;;;5155216;27;19923;-65
2023/08/16 03:56:25;;;;;;;0.63;0.32;;;12.80;99.90;;;;;;5136849;27;20149;-64
2023/08/16 03:58:50;;;;;;;0.28;0.28;;;13.10;99.90;;;;;;5154159;27;20049;-65
2023/08/16 04:01:16;;;;;;;;;;;13.00;99.90;;;;;;5154882;27;20047;-65
2023/08/16 04:03:43;;;;;;;0.20;0.20;;;12.60;99.90;;;;;;5155181;27;20009;-65
2023/08/16 04:06:12;;;;;;;0.30;0.30;;;12.70;99.90;;;;;;5154574;27;20107;-64
2023/08/16 04:08:41;;;;;;;0.30;0.30;;;12.70;99.90;;;;;;5154915;27;20050;-65
2023/08/16 04:11:07;;;;;;;0.28;0.28;;;12.30;99.90;;;;;;5155112;27;20042;-64
2023/08/16 04:13:33;;;;;;;1.23;0.50;;;12.80;99.90;;;;;;5155036;27;20042;-64
2023/08/16 04:15:58;;;;;;;;;;;13.00;99.90;;;;;;5155403;27;20068;-64
2023/08/16 04:18:25;;;;;;;0.30;0.30;;;12.40;99.90;;;;;;5155500;27;20282;-64
2023/08/16 04:20:51;;;;;;;0.20;0.20;;;13.00;99.90;;;;;;5154500;27;20053;-64
2023/08/16 04:23:17;;;;;;;0.30;0.30;;;12.70;99.90;;;;;;5135932;27;20058;-64
2023/08/16 04:25:42;;;;;;;0.28;0.28;;;12.50;99.90;;;;;;5154476;27;20043;-64
2023/08/16 04:28:08;;;;;;;;;;;12.80;99.90;;;;;;5154861;27;20046;-64
2023/08/16 04:30:34;;;;;;;0.30;0.30;;;12.40;99.90;;;;;;5154172;27;19942;-64
2023/08/16 04:33:00;;;;;;;;;;;12.40;99.90;;;;;;5154945;27;20081;-63
2023/08/16 04:35:25;;;;;;;0.20;0.20;;;12.30;99.90;;;;;;5154288;27;19980;-64
2023/08/16 04:37:51;;;;;;;0.20;0.20;;;12.70;99.90;;;;;;5153395;27;20042;-64
2023/08/16 04:40:17;;;;;;;0.20;0.20;;;12.90;99.90;;;;;;5153519;27;20035;-63
2023/08/16 04:42:43;;;;;;;0.32;0.32;;;12.70;99.90;;;;;;5154267;27;20698;-64
2023/08/16 04:45:09;;;;;;;0.30;0.30;;;12.60;99.90;;;;;;5154008;27;20050;-64
2023/08/16 04:47:34;;;;;;;;;;;12.50;99.90;;;;;;5154511;27;20129;-64
2023/08/16 04:50:03;;;;;;;0.30;0.30;;;13.10;99.90;;;;;;5154314;27;20083;-64
2023/08/16 04:52:29;;;;;;;0.22;0.22;;;13.00;99.90;;;;;;5153946;27;20054;-64
2023/08/16 04:54:54;;;;;;;0.80;0.80;;;12.70;99.90;;;;;;5153894;27;20039;-64
2023/08/16 04:57:20;;;;;;;0.20;0.20;;;12.50;99.90;;;;;;5153537;27;20057;-65
2023/08/16 04:59:46;;;;;;;0.20;0.20;;;12.40;99.90;;;;;;5153115;27;20077;-65
2023/08/16 05:02:11;;;;;;;0.40;0.40;;;13.00;99.90;;;;;;5153550;27;20046;-65
2023/08/16 05:04:37;;;;;;;0.52;0.52;;;12.90;99.90;;;;;;5135726;27;20474;-64
2023/08/16 05:07:03;;;;;;;0.30;0.30;;;12.80;99.90;;;;;;5153520;27;20134;-64
2023/08/16 05:09:28;;;;;;;;;;;12.60;99.90;;;;;;5154129;27;20100;-64
2023/08/16 05:11:54;;;;;;;0.22;0.22;;;12.90;99.90;;;;;;5153896;27;19971;-64
2023/08/16 05:14:20;;;;;;;0.40;0.40;;;12.90;99.90;;;;;;5153068;27;20047;-64
2023/08/16 05:16:45;;;;;;;0.20;0.20;;;13.10;99.90;;;;;;5153732;27;20118;-63
2023/08/16 05:19:11;;;;;;;;;;;12.90;99.90;;;;;;5153836;27;20061;-64
2023/08/16 05:21:36;;;;;;;0.20;0.20;;;12.90;99.90;;;;;;5152981;27;19970;-64
2023/08/16 05:24:02;;;;;;;0.20;0.20;;;13.30;99.90;;;;;;5152386;27;20046;-64
2023/08/16 05:26:28;;;;;;;0.65;0.25;;;13.50;99.90;;;;;;5153014;27;20054;-64
2023/08/16 05:28:54;;;;;;;0.22;0.22;;;13.70;99.90;;;;;;5135049;27;20133;-64
2023/08/16 05:31:19;;;;;;;0.35;0.35;;;13.40;99.90;;;;;;5153337;27;20047;-64
2023/08/16 05:33:45;;;;;;;;;;;13.60;99.90;;;;;;5135778;27;20389;-63
2023/08/16 05:36:11;;;;;;;0.20;0.20;;;14.10;99.90;;;;;;5153650;27;19922;-63
2023/08/16 05:38:36;;;;;;;0.20;0.20;;;13.10;99.90;;;;;;5153041;27;20046;-63
2023/08/16 05:41:03;;;;;;;;;;;13.90;99.90;;;;;;5153575;27;20071;-63
2023/08/16 05:43:29;;;;;;;0.20;0.20;;;13.30;99.90;;;;;;5152959;27;20388;-64
2023/08/16 05:45:55;;;;;;;0.13;0.13;;;13.70;99.90;;;;;;5153657;27;20406;-64
2023/08/16 05:48:20;;;;;;;0.22;0.22;;;15.60;99.90;;;;;;5153051;27;20047;-64
2023/08/16 05:50:46;;;;;;;;;;;13.80;99.90;;;;;;5153642;27;20057;-63
2023/08/16 05:53:11;;;;;;;0.15;0.15;;;13.60;99.90;;;;;;5152684;27;19923;-63
2023/08/16 05:55:37;;;;;;;0.20;0.20;;;14.30;99.90;;;;;;5152852;27;20035;-63
2023/08/16 05:58:04;;;;;;;0.20;0.20;;;14.00;99.90;;;;;;5152278;27;20051;-64
2023/08/16 06:00:30;;;;;;;0.20;0.20;;;14.00;99.90;;;;;;5152509;27;20046;-63
2023/08/16 06:02:55;;;;;;;0.13;0.13;;;14.70;99.90;;;;;;5134173;27;20050;-64
2023/08/16 06:05:21;;;;;;;0.20;0.20;;;14.80;99.90;;;;;;5152586;27;20054;-63
2023/08/16 06:07:46;;;;;;;;;;;14.80;99.90;;;;;;5151871;27;20054;-63
2023/08/16 06:10:12;;;;;;;0.20;0.20;;;14.60;99.90;;;;;;5152950;27;19923;-63
2023/08/16 06:12:38;;;;;;;;;;;14.50;99.90;;;;;;5153001;27;20416;-63
2023/08/16 06:15:11;;;;;;;0.20;0.20;;;15.20;99.90;;;;;;5133838;27;19930;-62
2023/08/16 06:17:39;;;;;;;0.20;0.20;;;15.20;99.90;;;;;;5152432;27;20393;-63
2023/08/16 06:20:07;;;;;;;0.25;0.25;;;15.20;99.90;;;;;;5152750;27;20039;-63
2023/08/16 06:22:34;;;;;;;0.80;0.80;;;15.40;99.90;;;;;;5152323;27;20050;-63
2023/08/16 06:25:00;;;;;;;0.20;0.20;;;15.10;99.90;;;;;;5152364;27;20046;-63
2023/08/16 06:27:25;;;;;;;;;;;15.50;99.90;;;;;;5153046;27;20069;-64
2023/08/16 06:29:51;;;;;;;0.57;0.57;;;15.50;99.90;;;;;;5152455;27;19919;-62
2023/08/16 06:32:17;;;;;;;;;;;16.10;99.90;;;;;;5153127;27;20050;-63
2023/08/16 06:34:43;;;;;;;0.20;0.20;;;16.30;99.90;;;;;;5152422;27;20290;-63
2023/08/16 06:37:09;;;;;;;0.40;0.40;;;15.70;99.90;;;;;;5151913;27;20397;-63
2023/08/16 06:39:34;;;;;;;;;;;16.50;99.90;;;;;;5152662;27;20082;-62
2023/08/16 06:42:00;;;;;;;0.10;0.10;;;15.90;99.90;;;;;;5151624;27;20382;-63
2023/08/16 06:44:26;;;;;;;1.27;0.57;;;16.10;99.90;;;;;;5152080;27;20165;-63
2023/08/16 06:46:52;;;;;;;;;;;16.90;99.90;;;;;;5152627;27;20058;-63
2023/08/16 06:49:17;;;;;;;0.10;0.10;;;16.30;99.90;;;;;;5152183;27;19934;-63
2023/08/16 06:51:43;;;;;;;;;;;17.00;99.90;;;;;;5151955;27;20043;-63
2023/08/16 06:54:08;;;;;;;0.10;0.10;;;17.30;99.90;;;;;;5151616;27;19919;-62
2023/08/16 06:56:34;;;;;;;;;;;17.20;99.90;;;;;;5151904;27;20448;-63
2023/08/16 06:59:00;;;;;;;0.40;0.40;;;17.30;99.90;;;;;;5150598;27;20731;-62
2023/08/16 07:01:26;;;;;;;0.35;0.35;;;17.20;99.90;;;;;;5132637;27;20502;-64
2023/08/16 07:03:51;;;;;;;;;;;17.70;99.90;;;;;;5132927;27;20086;-63
2023/08/16 07:06:18;;;;;;;0.40;0.40;;;17.20;99.90;;;;;;5151262;27;19923;-62
2023/08/16 07:08:43;;;;;;;0.30;0.30;;;17.10;99.90;;;;;;5151766;27;20062;-62
2023/08/16 07:11:09;;;;;;;0.20;0.20;;;17.50;99.90;;;;;;5150728;27;20043;-64
2023/08/16 07:13:35;;;;;;;;;;;17.70;99.90;;;;;;5151733;27;20046;-64
2023/08/16 07:16:00;;;;;;;0.20;0.20;;;17.70;99.90;;;;;;5132953;27;19926;-63
2023/08/16 07:18:26;;;;;;;;;;;17.90;99.90;;;;;;5154275;27;20179;-63
2023/08/16 07:20:52;;;;;;;6.20;0.40;;;17.60;99.90;;;;;;5155379;27;20404;-63
2023/08/16 07:23:17;;;;;;;;;;;18.30;99.90;;;;;;5136541;27;20133;-63
2023/08/16 07:25:43;;;;;;;0.20;0.20;;;18.40;99.90;;;;;;5155129;27;19923;-63
2023/08/16 07:28:08;;;;;;;;;;;18.50;99.90;;;;;;5155955;27;20047;-63
2023/08/16 07:30:37;;;;;;;0.40;0.40;;;20.00;99.90;;;;;;5154587;27;19919;-63
2023/08/16 07:33:04;;;;;;;0.20;0.20;;;18.30;99.90;;;;;;5154287;27;20079;-63
2023/08/16 07:35:31;;;;;;;0.30;0.30;;;18.40;99.90;;;;;;5155154;27;20486;-63
2023/08/16 07:37:56;;;;;;;0.45;0.45;;;18.80;99.90;;;;;;5155366;27;20053;-63
2023/08/16 07:40:22;;;;;;;0.82;0.43;;;18.90;99.90;;;;;;5155426;27;20133;-64
2023/08/16 07:42:48;;;;;;;1.75;0.57;;;19.10;99.90;;;;;;5155697;27;20086;-64
2023/08/16 07:45:14;;;;;;;0.98;0.35;;;18.90;99.90;;;;;;5136462;27;20031;-63
2023/08/16 07:47:39;;;;;;;0.38;0.38;;;19.30;99.90;;;;;;5155635;27;20046;-63
2023/08/16 07:50:05;;;;;;;0.50;0.50;;;18.70;99.90;;;;;;5154954;27;20047;-63
2023/08/16 07:52:31;;;;;;;0.10;0.10;;;18.70;99.90;;;;;;5154877;27;20416;-63
2023/08/16 07:54:57;;;;;;;0.10;0.10;;;18.90;99.90;;;;;;5135949;27;20041;-63
2023/08/16 07:57:23;;;;;;;0.60;0.60;;;18.90;99.90;;;;;;5154700;27;20054;-63
2023/08/16 07:59:48;;;;;;;0.22;0.22;;;19.40;99.90;;;;;;5135694;27;20185;-63
2023/08/16 08:02:14;;;;;;;0.30;0.30;;;19.40;99.90;;;;;;5154710;27;20046;-63
2023/08/16 08:04:40;;;;;;;0.32;0.32;;;19.80;99.90;;;;;;5153783;27;20085;-63
2023/08/16 08:07:05;;;;;;;0.20;0.20;;;19.70;99.90;;;;;;5135166;27;20057;-63
2023/08/16 08:09:34;;;;;;;0.10;0.10;;;19.50;99.90;;;;;;5154539;27;20047;-63
2023/08/16 08:12:00;;;;;;;0.20;0.20;;;19.40;99.90;;;;;;5154429;27;20038;-63
2023/08/16 08:14:25;;;;;;;0.25;0.25;;;19.60;99.90;;;;;;5154002;27;20462;-62
2023/08/16 08:16:52;;;;;;;0.28;0.28;;;19.50;99.90;;;;;;5154342;27;20050;-64
2023/08/16 08:19:17;;;;;;;0.10;0.10;;;19.80;99.90;;;;;;5153838;27;20054;-64
2023/08/16 08:21:44;;;;;;;0.20;0.20;;;19.70;99.90;;;;;;5153411;27;20046;-64
2023/08/16 08:24:10;;;;;;;0.10;0.10;;;19.90;99.90;;;;;;5153658;27;20049;-63
2023/08/16 08:26:36;;;;;;;0.85;0.85;;;19.80;99.90;;;;;;5153995;27;20121;-63
2023/08/16 08:29:01;;;;;;;1.35;0.55;;;20.00;99.90;;;;;;5152987;27;20050;-64
2023/08/16 08:31:27;;;;;;;0.30;0.30;;;20.10;99.90;;;;;;5134917;27;20042;-64
2023/08/16 08:33:53;;;;;;;0.30;0.30;;;20.00;99.90;;;;;;5153744;27;20042;-64
2023/08/16 08:36:18;;;;;;;0.13;0.13;;;20.10;99.90;;;;;;5154069;27;20417;-63
2023/08/16 08:38:44;;;;;;;0.20;0.20;;;20.10;99.90;;;;;;5153555;27;20133;-63
2023/08/16 08:41:10;;;;;;;0.30;0.30;;;20.10;99.90;;;;;;5153720;27;20063;-64
2023/08/16 08:43:37;;;;;;;19.73;0.70;;;20.30;99.90;;;;;;5153896;27;20130;-63
2023/08/16 08:46:05;;;;;;;0.10;0.10;;;20.10;99.90;;;;;;5152847;27;20047;-63
2023/08/16 08:48:31;;;;;;;0.10;0.10;;;20.30;99.90;;;;;;5152949;27;20050;-63
2023/08/16 08:50:58;;;;;;;0.10;0.10;;;20.40;99.90;;;;;;5153835;27;20482;-63
2023/08/16 08:53:25;;;;;;;0.40;0.40;;;20.30;99.90;;;;;;5153312;27;20383;-64
2023/08/16 08:55:52;;;;;;;0.28;0.28;;;20.10;99.90;;;;;;5153706;27;20058;-63
2023/08/16 08:58:19;;;;;;;0.43;0.38;;;19.80;99.90;;;;;;5153345;27;20393;-64
2023/08/16 09:00:46;;;;;;;0.28;0.28;;;20.10;99.90;;;;;;5153314;27;20082;-64
2023/08/16 09:03:12;;;;;;;0.30;0.30;;;20.30;99.90;;;;;;5152519;27;20046;-63
2023/08/16 09:05:39;;;;;;;0.00;0.00;;;20.70;99.90;;;;;;5152690;27;20052;-63
2023/08/16 09:08:06;;;;;;;0.20;0.20;;;20.50;99.90;;;;;;5153242;27;20051;-63
2023/08/16 09:10:38;;;;;;;0.30;0.30;;;20.90;99.90;;;;;;5153292;27;20129;-63
2023/08/16 09:13:09;;;;;;;0.10;0.10;;;21.00;99.90;;;;;;5154110;27;20053;-63
2023/08/16 09:15:39;;;;;;;0.10;0.10;;;20.90;99.90;;;;;;5153244;27;20082;-64
2023/08/16 09:18:12;;;;;;;0.10;0.10;;;20.90;99.90;;;;;;5153176;27;20058;-64
2023/08/16 09:20:39;;;;;;;0.10;0.10;;;20.50;99.90;;;;;;5152826;27;20121;-63
2023/08/16 09:23:06;;;;;;;0.00;0.00;;;20.80;99.90;;;;;;5153182;27;20046;-63
2023/08/16 09:25:32;;;;;;;0.20;0.20;;;20.70;99.90;;;;;;5117071;27;20082;-63
2023/08/16 09:27:58;;;;;;;2.67;0.35;;;20.90;99.90;;;;;;5152834;27;20050;-63
2023/08/16 09:30:27;;;;;;;0.30;0.22;;;20.90;99.90;;;;;;5152773;27;20055;-65
2023/08/16 09:32:54;;;;;;;0.40;0.22;;;21.30;99.90;;;;;;5153069;27;20444;-63
2023/08/16 09:35:27;;;;;;;0.10;0.10;;;21.30;99.90;;;;;;5152572;27;20074;-63
2023/08/16 09:38:00;;;;;;;0.45;0.32;;;21.10;99.90;;;;;;5152821;27;20475;-64
2023/08/16 09:40:27;;;;;;;1.17;0.50;;;21.10;99.90;;;;;;5151278;27;20501;-64
2023/08/16 09:43:00;;;;;;;0.10;0.10;;;21.20;99.90;;;;;;5151879;27;20569;-63
2023/08/16 09:45:33;;;;;;;0.22;0.22;;;21.10;99.90;;;;;;5152354;27;20038;-64
2023/08/16 09:48:00;;;;;;;0.20;0.20;;;21.30;99.90;;;;;;5152297;27;20110;-63
2023/08/16 09:50:32;;;;;;;0.20;0.20;;;21.10;99.90;;;;;;5151511;27;20054;-64
2023/08/16 09:52:58;;;;;;;0.20;0.20;;;20.70;99.90;;;;;;5151801;27;20127;-64
2023/08/16 09:55:29;;;;;;;0.57;0.32;;;21.30;99.90;;;;;;5152148;27;20074;-63
2023/08/16 09:57:57;;;;;;;0.38;0.30;;;21.10;99.90;;;;;;5152295;27;20533;-63
2023/08/16 10:00:25;;;;;;;0.10;0.10;;;21.30;99.90;;;;;;5152179;27;20069;-63
2023/08/16 10:02:52;;;;;;;0.10;0.10;;;21.10;99.90;;;;;;5151937;27;20048;-63
2023/08/16 10:05:18;;;;;;;0.10;0.10;;;21.80;99.90;;;;;;5152477;27;20047;-63
2023/08/16 10:07:47;;;;;;;0.35;0.35;;;21.50;99.90;;;;;;5152787;27;20061;-64
2023/08/16 10:10:13;;;;;;;0.10;0.10;;;21.10;99.90;;;;;;5152196;27;20831;-64
2023/08/16 10:12:39;;;;;;;0.10;0.10;;;21.10;99.90;;;;;;5152553;27;20043;-64
2023/08/16 10:15:05;;;;;;;0.22;0.17;;;21.50;99.90;;;;;;5134166;27;20062;-64
2023/08/16 10:17:33;;;;;;;0.10;0.10;;;21.50;99.90;;;;;;5152475;27;20417;-63
2023/08/16 10:20:04;;;;;;;0.00;0.00;;;21.60;99.90;;;;;;5152735;27;20034;-63
2023/08/16 10:22:36;;;;;;;0.10;0.10;;;22.20;99.90;;;;;;5152920;27;20065;-64
2023/08/16 10:25:17;;;;;;;0.30;0.20;;;21.70;99.90;;;;;;5152347;27;20034;-63
2023/08/16 10:27:44;;;;;;;0.10;0.10;;;21.50;99.90;;;;;;5152476;27;20122;-63
2023/08/16 10:30:24;;;;;;;0.10;0.10;;;21.60;99.90;;;;;;5152368;27;20149;-63
2023/08/16 10:33:01;;;;;;;0.10;0.10;;;21.40;99.90;;;;;;5152644;27;20115;-64
2023/08/16 10:35:28;;;;;;;0.25;0.25;;;21.70;99.90;;;;;;5152393;27;20099;-63
2023/08/16 10:37:53;;;;;;;0.08;0.08;;;21.40;99.90;;;;;;5152271;27;20478;-63
2023/08/16 10:40:22;;;;;;;0.00;0.00;;;21.60;99.90;;;;;;5152073;27;20196;-63
2023/08/16 10:42:52;;;;;;;0.10;0.10;;;21.50;99.90;;;;;;5152109;27;20073;-62
2023/08/16 10:45:22;;;;;;;0.10;0.10;;;21.90;99.90;;;;;;5151632;27;20047;-64
2023/08/16 10:47:48;;;;;;;0.10;0.10;;;21.60;99.90;;;;;;5152083;27;20417;-64
2023/08/16 10:50:14;;;;;;;0.00;0.00;;;21.70;99.90;;;;;;5152326;27;20122;-63
2023/08/16 10:52:42;;;;;;;0.38;0.20;;;21.50;99.90;;;;;;5152824;27;20043;-63
2023/08/16 10:55:07;;;;;;;0.30;0.30;;;22.00;99.90;;;;;;5155913;27;20045;-63
2023/08/16 10:57:34;;;;;;;0.20;0.20;;;21.40;99.90;;;;;;5137823;27;20050;-64
2023/08/16 11:00:05;;;;;;;0.10;0.10;;;21.90;99.90;;;;;;5156026;27;20055;-65
2023/08/16 11:02:32;;;;;;;0.30;0.30;;;21.70;99.90;;;;;;5155509;27;20047;-63
2023/08/16 11:05:03;;;;;;;0.10;0.10;;;21.30;99.90;;;;;;5156183;27;20042;-64
2023/08/16 11:07:29;;;;;;;0.20;0.20;;;21.70;99.90;;;;;;5156010;27;20055;-64
2023/08/16 11:10:01;;;;;;;0.10;0.10;;;21.60;99.90;;;;;;5155836;27;20050;-63
2023/08/16 11:12:31;;;;;;;0.10;0.10;;;21.30;99.90;;;;;;5156227;27;20035;-64
2023/08/16 11:14:58;;;;;;;0.20;0.20;;;21.50;99.90;;;;;;5156050;27;20486;-63
2023/08/16 11:17:27;;;;;;;0.13;0.13;;;21.80;99.90;;;;;;5155311;27;20385;-63
2023/08/16 11:19:53;;;;;;;0.10;0.10;;;21.40;99.90;;;;;;5155936;27;20081;-63
2023/08/16 11:22:24;;;;;;;0.10;0.10;;;21.60;99.90;;;;;;5155895;27;20612;-64
2023/08/16 11:24:50;;;;;;;0.20;0.20;;;21.50;99.90;;;;;;5154970;27;20382;-64
2023/08/16 11:27:23;;;;;;;0.22;0.22;;;21.80;99.90;;;;;;5154899;27;20046;-64
2023/08/16 11:29:56;;;;;;;0.10;0.10;;;21.70;99.90;;;;;;5155729;27;20191;-63
2023/08/16 11:32:32;;;;;;;0.22;0.22;;;21.80;99.90;;;;;;5155705;27;20066;-63
2023/08/16 11:34:58;;;;;;;0.20;0.20;;;22.30;99.90;;;;;;5155323;27;20668;-65
2023/08/16 11:37:24;;;;;;;0.38;0.38;;;22.50;99.90;;;;;;5137040;27;20125;-64
2023/08/16 11:40:00;;;;;;;0.20;0.20;;;22.40;99.90;;;;;;5155521;27;20053;-63
2023/08/16 11:42:29;;;;;;;0.10;0.10;;;22.30;99.90;;;;;;5154803;27;20088;-64
2023/08/16 11:44:54;;;;;;;0.10;0.10;;;22.50;99.90;;;;;;5154846;27;20482;-64
2023/08/16 11:47:20;;;;;;;1.40;0.35;;;22.50;99.90;;;;;;5155159;27;20041;-64
2023/08/16 11:49:49;;;;;;;0.10;0.10;;;22.10;99.90;;;;;;5136529;27;20490;-65
2023/08/16 11:52:25;;;;;;;0.10;0.10;;;22.10;99.90;;;;;;5154230;27;20049;-64
2023/08/16 11:55:03;;;;;;;0.13;0.13;;;21.70;99.90;;;;;;5155251;27;20077;-64
2023/08/16 11:57:29;;;;;;;0.20;0.20;;;22.10;99.90;;;;;;5154908;27;20494;-63
2023/08/16 11:59:55;;;;;;;0.20;0.20;;;22.40;99.90;;;;;;5154221;27;20039;-65
2023/08/16 12:02:23;;;;;;;0.10;0.10;;;22.50;99.90;;;;;;5154726;27;20046;-63
2023/08/16 12:04:49;;;;;;;0.10;0.10;;;22.30;99.90;;;;;;5153886;27;20034;-63
2023/08/16 12:07:14;;;;;;;0.38;0.38;;;21.90;99.90;;;;;;5154925;27;20055;-63
2023/08/16 12:09:40;;;;;;;0.10;0.10;;;22.20;99.90;;;;;;5154850;27;20427;-63
2023/08/16 12:12:08;;;;;;;0.00;0.00;;;22.50;99.90;;;;;;5154598;27;20047;-64
2023/08/16 12:14:34;;;;;;;0.20;0.20;;;22.80;99.90;;;;;;5154874;27;20047;-63
2023/08/16 12:17:00;;;;;;;0.10;0.10;;;22.80;99.90;;;;;;5154872;27;20069;-63
2023/08/16 12:19:25;;;;;;;0.00;0.00;;;22.30;99.90;;;;;;5154252;27;20085;-63
2023/08/16 12:21:52;;;;;;;0.20;0.20;;;22.60;99.90;;;;;;5153927;27;20475;-64
2023/08/16 12:24:19;;;;;;;0.05;0.05;;;22.80;99.90;;;;;;5154215;27;20069;-64
2023/08/16 12:26:45;;;;;;;2.85;1.05;;;22.60;99.90;;;;;;5136009;27;20077;-64
2023/08/16 12:29:10;;;;;;;0.20;0.20;;;22.40;99.90;;;;;;5154721;27;20047;-63
2023/08/16 12:31:36;;;;;;;0.20;0.20;;;22.60;99.90;;;;;;5154480;27;20049;-63
2023/08/16 12:34:02;;;;;;;0.00;0.00;;;22.40;99.90;;;;;;5154399;27;20080;-64
2023/08/16 12:36:27;;;;;;;0.25;0.10;;;22.50;99.90;;;;;;5153407;27;20051;-64
2023/08/16 12:38:53;;;;;;;0.00;0.00;;;22.90;99.90;;;;;;5153962;27;20593;-62
2023/08/16 12:41:19;;;;;;;0.30;0.30;;;23.20;99.90;;;;;;5154646;27;20395;-62
2023/08/16 12:43:44;;;;;;;0.00;0.00;;;22.80;99.90;;;;;;5135797;27;20099;-64
2023/08/16 12:46:10;;;;;;;0.20;0.20;;;22.70;99.90;;;;;;5154171;27;20082;-65
2023/08/16 12:48:36;;;;;;;0.20;0.20;;;22.60;99.90;;;;;;5154044;27;20053;-63
2023/08/16 12:51:01;;;;;;;0.10;0.10;;;22.70;99.90;;;;;;5153704;27;20092;-64
2023/08/16 12:53:30;;;;;;;0.00;0.00;;;22.20;99.90;;;;;;5153594;27;20042;-64
2023/08/16 12:55:58;;;;;;;0.10;0.10;;;22.20;99.90;;;;;;5153994;27;20062;-64